Time;durP1;ratioP1;P1;durP2;ratioP2;P2;SDS_P1;SDS_P2;PMS_P1;PMS_P2;Temp;Humidity;BMP_temperature;BMP_pressure;BME280_temperature;BME280_humidity;BME280_pressure;Samples;Min_cycle;Max_cycle;Signal;HPM_P1;HPM_P2
2021/08/11 00:01:31;;;;;;;2.13;1.70;;;;;;;;;;5025628;28;20119;-76
2021/08/11 00:04:15;;;;;;;2.95;2.00;;;;;;;;;;5062382;28;20055;-76
2021/08/11 00:07:00;;;;;;;2.30;1.70;;;;;;;;;;5024578;28;20060;-76
2021/08/11 00:09:44;;;;;;;3.97;2.13;;;;;;;;;;5029010;28;20039;-76
2021/08/11 00:12:28;;;;;;;2.25;1.80;;;;;;;;;;5014500;28;20091;-76
2021/08/11 00:15:13;;;;;;;2.80;1.88;;;;;;;;;;5041965;28;20513;-76
2021/08/11 00:17:58;;;;;;;2.53;1.70;;;;;;;;;;5040471;28;20040;-76
2021/08/11 00:20:43;;;;;;;2.22;1.70;;;;;;;;;;5043974;28;20047;-76
2021/08/11 00:23:27;;;;;;;4.20;1.80;;;;;;;;;;5043028;28;20071;-75
2021/08/11 00:26:11;;;;;;;1.95;1.60;;;;;;;;;;5019489;28;20067;-76
2021/08/11 00:28:56;;;;;;;2.63;1.70;;;;;;;;;;5041703;28;20040;-76
2021/08/11 00:31:40;;;;;;;2.30;1.48;;;;;;;;;;5042923;28;20079;-76
2021/08/11 00:34:27;;;;;;;2.60;1.85;;;;;;;;;;5040212;28;20067;-76
2021/08/11 00:37:11;;;;;;;2.78;1.70;;;;;;;;;;5042710;28;20082;-76
2021/08/11 00:39:58;;;;;;;3.38;1.90;;;;;;;;;;5043245;28;20068;-76
2021/08/11 00:42:43;;;;;;;2.45;1.70;;;;;;;;;;5013994;28;20104;-76
2021/08/11 00:45:28;;;;;;;3.00;1.60;;;;;;;;;;5043608;28;20068;-76
2021/08/11 00:48:12;;;;;;;2.35;1.90;;;;;;;;;;5042952;28;20032;-76
2021/08/11 00:50:57;;;;;;;2.50;1.50;;;;;;;;;;5027702;28;20083;-76
2021/08/11 00:53:42;;;;;;;2.45;1.65;;;;;;;;;;5042388;28;20048;-76
2021/08/11 00:56:27;;;;;;;2.80;1.83;;;;;;;;;;5027813;28;20150;-76
2021/08/11 00:59:11;;;;;;;2.40;1.70;;;;;;;;;;5051654;28;20115;-75
2021/08/11 01:01:56;;;;;;;3.45;1.73;;;;;;;;;;5027866;28;20575;-76
2021/08/11 01:04:41;;;;;;;2.72;1.60;;;;;;;;;;5025672;28;20035;-76
2021/08/11 01:07:28;;;;;;;1.90;1.50;;;;;;;;;;5027175;28;20040;-76
2021/08/11 01:10:13;;;;;;;3.28;1.88;;;;;;;;;;5042295;28;20045;-76
2021/08/11 01:12:57;;;;;;;2.85;1.90;;;;;;;;;;5041138;28;20090;-76
2021/08/11 01:15:48;;;;;;;2.75;1.75;;;;;;;;;;5040301;28;20090;-76
2021/08/11 01:18:32;;;;;;;3.13;1.70;;;;;;;;;;5041840;28;20091;-76
2021/08/11 01:21:30;;;;;;;2.28;1.80;;;;;;;;;;5024724;28;20046;-76
2021/08/11 01:24:29;;;;;;;2.03;1.52;;;;;;;;;;5028003;28;20036;-76
2021/08/11 01:27:27;;;;;;;2.47;1.77;;;;;;;;;;5029842;28;20037;-76
2021/08/11 01:30:21;;;;;;;2.60;1.80;;;;;;;;;;5043193;28;20497;-76
2021/08/11 01:33:25;;;;;;;3.67;1.80;;;;;;;;;;5033752;28;20063;-76
2021/08/11 01:36:14;;;;;;;2.97;1.77;;;;;;;;;;5039808;28;20059;-77
2021/08/11 01:39:00;;;;;;;3.60;2.10;;;;;;;;;;5022943;28;20414;-76
2021/08/11 01:41:46;;;;;;;2.30;1.80;;;;;;;;;;5024980;28;20112;-77
2021/08/11 01:44:51;;;;;;;2.20;1.67;;;;;;;;;;5045893;28;20044;-77
2021/08/11 01:47:46;;;;;;;3.03;1.80;;;;;;;;;;5044063;28;20051;-76
2021/08/11 01:50:31;;;;;;;3.97;2.10;;;;;;;;;;5050651;28;20040;-76
2021/08/11 01:53:19;;;;;;;2.65;1.70;;;;;;;;;;5041963;28;20087;-76
2021/08/11 01:56:04;;;;;;;3.10;1.65;;;;;;;;;;5041525;28;20079;-76
2021/08/11 01:58:49;;;;;;;3.42;1.92;;;;;;;;;;5046337;28;20405;-76
2021/08/11 02:01:36;;;;;;;2.78;1.88;;;;;;;;;;5045383;28;20044;-76
2021/08/11 02:04:20;;;;;;;3.78;2.05;;;;;;;;;;5042827;28;21671;-76
2021/08/11 02:07:05;;;;;;;2.72;1.85;;;;;;;;;;5043595;28;20105;-76
2021/08/11 02:09:49;;;;;;;3.63;2.17;;;;;;;;;;5041929;28;20051;-77
2021/08/11 02:12:33;;;;;;;2.58;1.73;;;;;;;;;;5044395;28;20457;-76
2021/08/11 02:15:18;;;;;;;3.33;2.00;;;;;;;;;;5027930;28;20032;-76
2021/08/11 02:18:03;;;;;;;2.75;2.15;;;;;;;;;;5030406;28;20044;-77
2021/08/11 02:20:50;;;;;;;4.10;2.10;;;;;;;;;;5046248;28;20036;-77
2021/08/11 02:23:34;;;;;;;3.70;2.03;;;;;;;;;;5033358;28;20119;-76
2021/08/11 02:26:20;;;;;;;3.30;2.08;;;;;;;;;;5046101;28;20036;-76
2021/08/11 02:29:20;;;;;;;2.75;1.90;;;;;;;;;;5043085;28;20043;-76
2021/08/11 02:32:11;;;;;;;3.42;2.05;;;;;;;;;;5036512;28;20043;-76
2021/08/11 02:34:56;;;;;;;2.83;2.15;;;;;;;;;;5047911;28;20044;-76
2021/08/11 02:37:40;;;;;;;3.67;2.30;;;;;;;;;;5047382;28;20059;-76
2021/08/11 02:40:29;;;;;;;3.80;1.98;;;;;;;;;;5048133;28;20044;-76
2021/08/11 02:43:16;;;;;;;3.30;2.20;;;;;;;;;;5028237;28;20581;-76
2021/08/11 02:46:05;;;;;;;4.55;2.08;;;;;;;;;;5048974;28;20788;-76
2021/08/11 02:48:53;;;;;;;5.13;2.15;;;;;;;;;;5046294;28;20099;-76
2021/08/11 02:51:37;;;;;;;4.22;2.13;;;;;;;;;;5031474;28;20434;-76
2021/08/11 02:54:22;;;;;;;4.75;1.98;;;;;;;;;;5030861;28;20840;-76
2021/08/11 02:57:06;;;;;;;3.50;2.20;;;;;;;;;;5040770;28;20075;-76
2021/08/11 02:59:51;;;;;;;2.67;2.00;;;;;;;;;;5029971;28;20079;-76
2021/08/11 03:02:35;;;;;;;3.33;2.13;;;;;;;;;;5047851;28;20051;-76
2021/08/11 03:05:20;;;;;;;4.00;2.28;;;;;;;;;;5047045;28;20032;-76
2021/08/11 03:08:06;;;;;;;4.82;2.40;;;;;;;;;;5031456;28;20039;-76
2021/08/11 03:10:51;;;;;;;3.08;2.25;;;;;;;;;;5046006;28;20043;-76
2021/08/11 03:13:37;;;;;;;3.67;2.42;;;;;;;;;;5047674;28;20059;-76
2021/08/11 03:16:22;;;;;;;3.85;2.40;;;;;;;;;;5044911;28;20044;-76
2021/08/11 03:19:07;;;;;;;4.65;2.22;;;;;;;;;;5032807;28;20090;-76
2021/08/11 03:21:51;;;;;;;3.58;2.22;;;;;;;;;;5047590;28;20083;-76
2021/08/11 03:24:36;;;;;;;3.53;2.40;;;;;;;;;;5041234;28;20118;-77
2021/08/11 03:27:21;;;;;;;3.53;2.00;;;;;;;;;;5040155;28;20068;-77
2021/08/11 03:30:06;;;;;;;3.53;2.35;;;;;;;;;;5045797;28;20032;-76
2021/08/11 03:32:51;;;;;;;3.50;2.20;;;;;;;;;;5043152;28;20171;-76
2021/08/11 03:35:35;;;;;;;3.95;2.50;;;;;;;;;;5044266;28;20048;-76
2021/08/11 03:38:20;;;;;;;3.35;2.17;;;;;;;;;;5043273;28;20680;-76
2021/08/11 03:41:04;;;;;;;4.80;2.58;;;;;;;;;;5042313;28;20067;-77
2021/08/11 03:43:49;;;;;;;4.45;2.20;;;;;;;;;;5047833;28;20044;-77
2021/08/11 03:46:33;;;;;;;3.45;2.13;;;;;;;;;;5047181;28;20062;-76
2021/08/11 03:49:19;;;;;;;3.00;2.05;;;;;;;;;;5046877;28;20707;-77
2021/08/11 03:52:04;;;;;;;3.00;2.15;;;;;;;;;;5044855;28;20051;-77
2021/08/11 03:54:48;;;;;;;3.50;2.50;;;;;;;;;;5047744;28;20051;-77
2021/08/11 03:57:33;;;;;;;4.32;2.10;;;;;;;;;;5047690;28;20048;-76
2021/08/11 04:00:18;;;;;;;3.55;2.20;;;;;;;;;;5040999;28;20089;-77
2021/08/11 04:03:02;;;;;;;4.40;2.25;;;;;;;;;;5042177;28;20064;-76
2021/08/11 04:05:47;;;;;;;4.18;2.00;;;;;;;;;;5045608;28;20094;-77
2021/08/11 04:08:32;;;;;;;4.50;2.42;;;;;;;;;;5046173;28;20095;-75
2021/08/11 04:11:16;;;;;;;3.67;2.30;;;;;;;;;;5036864;28;20600;-76
2021/08/11 04:14:01;;;;;;;4.40;2.42;;;;;;;;;;5045607;28;20727;-76
2021/08/11 04:16:45;;;;;;;3.72;2.22;;;;;;;;;;5046883;28;20036;-76
2021/08/11 04:19:30;;;;;;;5.47;2.35;;;;;;;;;;5047262;28;20047;-75
2021/08/11 04:22:14;;;;;;;3.05;2.05;;;;;;;;;;5045813;28;20094;-75
2021/08/11 04:24:59;;;;;;;3.53;2.15;;;;;;;;;;5046076;28;20148;-76
2021/08/11 04:27:43;;;;;;;3.95;2.20;;;;;;;;;;5040625;28;20097;-76
2021/08/11 04:30:28;;;;;;;2.92;2.13;;;;;;;;;;5032022;28;20036;-75
2021/08/11 04:33:13;;;;;;;3.45;2.13;;;;;;;;;;5048060;28;20051;-76
2021/08/11 04:35:58;;;;;;;3.10;2.08;;;;;;;;;;5028735;28;20039;-75
2021/08/11 04:38:42;;;;;;;4.53;1.88;;;;;;;;;;5026364;28;20048;-75
2021/08/11 04:41:27;;;;;;;2.92;2.30;;;;;;;;;;5036491;28;20048;-76
2021/08/11 04:44:11;;;;;;;3.72;2.08;;;;;;;;;;5043316;28;20112;-75
2021/08/11 04:46:56;;;;;;;3.58;2.25;;;;;;;;;;5031737;28;20039;-75
2021/08/11 04:49:41;;;;;;;3.25;2.17;;;;;;;;;;5041803;28;20567;-76
2021/08/11 04:52:26;;;;;;;3.75;2.20;;;;;;;;;;5041709;28;20055;-77
2021/08/11 04:55:12;;;;;;;3.88;2.33;;;;;;;;;;5027452;28;20082;-76
2021/08/11 04:57:56;;;;;;;3.40;2.20;;;;;;;;;;5042525;28;20040;-76
2021/08/11 05:00:41;;;;;;;2.92;1.90;;;;;;;;;;5032667;28;20123;-76
2021/08/11 05:03:25;;;;;;;3.10;2.20;;;;;;;;;;5027157;28;20592;-75
2021/08/11 05:06:10;;;;;;;2.90;1.90;;;;;;;;;;5032955;28;20042;-75
2021/08/11 05:08:56;;;;;;;2.42;1.70;;;;;;;;;;5031771;28;20044;-75
2021/08/11 05:11:41;;;;;;;2.90;1.75;;;;;;;;;;5031379;28;20123;-75
2021/08/11 05:14:26;;;;;;;3.47;2.05;;;;;;;;;;5033334;28;20031;-75
2021/08/11 05:17:11;;;;;;;2.95;1.80;;;;;;;;;;5035142;28;20052;-76
2021/08/11 05:19:56;;;;;;;3.45;1.95;;;;;;;;;;5039155;28;20086;-76
2021/08/11 05:22:41;;;;;;;3.10;1.92;;;;;;;;;;5055736;28;20067;-75
2021/08/11 05:25:25;;;;;;;4.30;2.03;;;;;;;;;;5051915;28;20112;-75
2021/08/11 05:28:10;;;;;;;3.63;1.90;;;;;;;;;;5046549;28;20066;-76
2021/08/11 05:30:55;;;;;;;2.88;1.73;;;;;;;;;;5036743;28;20048;-76
2021/08/11 05:33:39;;;;;;;4.10;2.17;;;;;;;;;;5035118;28;20532;-75
2021/08/11 05:36:24;;;;;;;3.10;1.50;;;;;;;;;;5048538;28;20108;-75
2021/08/11 05:39:08;;;;;;;3.47;2.10;;;;;;;;;;5043863;28;20102;-75
2021/08/11 05:41:53;;;;;;;6.10;1.70;;;;;;;;;;5031292;28;20040;-75
2021/08/11 05:44:37;;;;;;;2.88;1.70;;;;;;;;;;5030512;28;20111;-75
2021/08/11 05:47:22;;;;;;;3.15;1.77;;;;;;;;;;5043483;28;20511;-76
2021/08/11 05:50:07;;;;;;;3.60;1.80;;;;;;;;;;5031825;28;20043;-76
2021/08/11 05:52:51;;;;;;;2.92;1.73;;;;;;;;;;5025468;28;20079;-76
2021/08/11 05:55:36;;;;;;;3.25;1.90;;;;;;;;;;5025988;28;20844;-76
2021/08/11 05:58:20;;;;;;;3.25;1.77;;;;;;;;;;5030091;28;20055;-76
2021/08/11 06:01:05;;;;;;;3.90;1.50;;;;;;;;;;5039322;28;20055;-76
2021/08/11 06:03:51;;;;;;;3.42;1.80;;;;;;;;;;5027154;28;20052;-76
2021/08/11 06:06:35;;;;;;;3.22;2.00;;;;;;;;;;5052326;28;20414;-76
2021/08/11 06:09:20;;;;;;;2.45;1.50;;;;;;;;;;5038614;28;20556;-76
2021/08/11 06:12:05;;;;;;;3.38;1.60;;;;;;;;;;5046468;28;20126;-76
2021/08/11 06:14:49;;;;;;;3.10;1.67;;;;;;;;;;5040107;28;20090;-76
2021/08/11 06:17:42;;;;;;;3.42;1.70;;;;;;;;;;5028539;28;20044;-76
2021/08/11 06:20:27;;;;;;;3.40;1.67;;;;;;;;;;5038425;28;20243;-76
2021/08/11 06:23:11;;;;;;;3.05;1.70;;;;;;;;;;5026611;28;20095;-77
2021/08/11 06:25:56;;;;;;;2.85;1.60;;;;;;;;;;5026393;28;20037;-76
2021/08/11 06:28:41;;;;;;;2.17;1.50;;;;;;;;;;5026025;28;20060;-76
2021/08/11 06:31:26;;;;;;;2.70;1.70;;;;;;;;;;5040699;28;20127;-77
2021/08/11 06:34:11;;;;;;;2.45;1.50;;;;;;;;;;5041813;28;20110;-75
2021/08/11 06:36:56;;;;;;;2.47;1.58;;;;;;;;;;5045456;28;20043;-74
2021/08/11 06:39:41;;;;;;;2.35;1.30;;;;;;;;;;5036614;28;20040;-74
2021/08/11 06:42:25;;;;;;;2.63;1.63;;;;;;;;;;5050292;28;20091;-74
2021/08/11 06:45:10;;;;;;;3.25;1.50;;;;;;;;;;5054118;28;20692;-75
2021/08/11 06:47:55;;;;;;;4.47;1.58;;;;;;;;;;5053998;28;20043;-75
2021/08/11 06:50:40;;;;;;;2.58;1.38;;;;;;;;;;5042128;28;20040;-76
2021/08/11 06:53:25;;;;;;;2.72;1.35;;;;;;;;;;5031858;28;20075;-75
2021/08/11 06:56:09;;;;;;;2.72;1.58;;;;;;;;;;5026081;28;20501;-75
2021/08/11 06:58:53;;;;;;;2.13;1.33;;;;;;;;;;5024419;28;20120;-75
2021/08/11 07:01:38;;;;;;;2.03;1.30;;;;;;;;;;5036471;28;20106;-75
2021/08/11 07:04:22;;;;;;;2.90;1.58;;;;;;;;;;5030736;28;20051;-75
2021/08/11 07:07:07;;;;;;;2.80;1.50;;;;;;;;;;5027462;28;20044;-75
2021/08/11 07:09:53;;;;;;;2.80;1.90;;;;;;;;;;5041328;28;20039;-75
2021/08/11 07:12:38;;;;;;;2.45;1.38;;;;;;;;;;5034835;28;20056;-75
2021/08/11 07:15:23;;;;;;;3.28;1.67;;;;;;;;;;5040528;28;20460;-75
2021/08/11 07:18:07;;;;;;;2.08;1.27;;;;;;;;;;5044746;28;20040;-75
2021/08/11 07:20:52;;;;;;;2.30;1.45;;;;;;;;;;5030692;28;20082;-75
2021/08/11 07:23:36;;;;;;;2.47;1.30;;;;;;;;;;5028924;28;20188;-75
2021/08/11 07:26:21;;;;;;;2.72;1.60;;;;;;;;;;5023156;28;20072;-74
2021/08/11 07:29:06;;;;;;;2.38;1.48;;;;;;;;;;5043660;28;20048;-75
2021/08/11 07:31:50;;;;;;;2.38;1.30;;;;;;;;;;5033253;28;20106;-75
2021/08/11 07:34:35;;;;;;;2.60;1.20;;;;;;;;;;5044972;28;20047;-76
2021/08/11 07:37:19;;;;;;;3.58;1.40;;;;;;;;;;5045101;28;20099;-76
2021/08/11 07:40:04;;;;;;;2.10;1.30;;;;;;;;;;5029305;28;20536;-76
2021/08/11 07:42:49;;;;;;;2.25;1.20;;;;;;;;;;5028959;28;20156;-76
2021/08/11 07:45:33;;;;;;;2.53;1.30;;;;;;;;;;5042501;28;20064;-75
2021/08/11 07:48:18;;;;;;;2.90;1.30;;;;;;;;;;5036351;28;20073;-75
2021/08/11 07:51:03;;;;;;;2.38;1.30;;;;;;;;;;5038027;28;20052;-75
2021/08/11 07:53:48;;;;;;;2.88;1.20;;;;;;;;;;5041505;28;20039;-75
2021/08/11 07:56:32;;;;;;;1.75;1.25;;;;;;;;;;5026995;28;20071;-76
2021/08/11 07:59:17;;;;;;;3.22;1.40;;;;;;;;;;5064104;28;20098;-75
2021/08/11 08:02:03;;;;;;;2.28;1.38;;;;;;;;;;5040604;28;20043;-74
2021/08/11 08:04:48;;;;;;;1.83;1.23;;;;;;;;;;5026372;28;20091;-74
2021/08/11 08:07:33;;;;;;;1.60;1.15;;;;;;;;;;5030100;28;20052;-75
2021/08/11 08:10:17;;;;;;;2.13;1.23;;;;;;;;;;5022721;28;20028;-75
2021/08/11 08:13:02;;;;;;;2.00;1.20;;;;;;;;;;5037937;28;20650;-75
2021/08/11 08:15:50;;;;;;;2.05;1.10;;;;;;;;;;5027255;28;20040;-75
2021/08/11 08:18:34;;;;;;;1.90;1.23;;;;;;;;;;5022666;28;20126;-75
2021/08/11 08:21:19;;;;;;;2.22;1.20;;;;;;;;;;5030121;28;20589;-75
2021/08/11 08:24:03;;;;;;;1.85;1.00;;;;;;;;;;5056719;28;20036;-75
2021/08/11 08:26:48;;;;;;;2.65;1.70;;;;;;;;;;5027021;28;20068;-75
2021/08/11 08:29:33;;;;;;;2.72;1.38;;;;;;;;;;5025506;28;20059;-75
2021/08/11 08:32:17;;;;;;;2.17;1.40;;;;;;;;;;5038413;28;20067;-75
2021/08/11 08:35:02;;;;;;;1.52;0.98;;;;;;;;;;5041982;28;20044;-75
2021/08/11 08:37:47;;;;;;;2.10;1.30;;;;;;;;;;5042743;28;20075;-75
2021/08/11 08:40:33;;;;;;;2.80;1.40;;;;;;;;;;5031102;28;20175;-75
2021/08/11 08:43:17;;;;;;;2.45;1.25;;;;;;;;;;5043443;28;20089;-75
2021/08/11 08:46:02;;;;;;;2.47;1.15;;;;;;;;;;5032441;28;20032;-75
2021/08/11 08:48:46;;;;;;;3.60;1.25;;;;;;;;;;5044323;28;20043;-75
2021/08/11 08:51:31;;;;;;;1.80;1.20;;;;;;;;;;5026660;28;20055;-75
2021/08/11 08:54:21;;;;;;;1.45;1.02;;;;;;;;;;5034141;28;20116;-75
2021/08/11 08:57:06;;;;;;;3.17;1.60;;;;;;;;;;5032576;28;20035;-75
2021/08/11 08:59:50;;;;;;;2.17;1.05;;;;;;;;;;5024587;28;20131;-76
2021/08/11 09:02:38;;;;;;;1.95;1.35;;;;;;;;;;5043222;28;20044;-76
2021/08/11 09:05:23;;;;;;;1.75;1.10;;;;;;;;;;5042042;28;20035;-76
2021/08/11 09:08:08;;;;;;;3.65;1.60;;;;;;;;;;5027538;28;20427;-76
2021/08/11 09:10:53;;;;;;;2.22;1.40;;;;;;;;;;5027925;28;20122;-76
2021/08/11 09:13:38;;;;;;;3.17;1.42;;;;;;;;;;5027508;28;20136;-76
2021/08/11 09:16:22;;;;;;;2.42;1.60;;;;;;;;;;5042642;28;20103;-76
2021/08/11 09:19:08;;;;;;;2.85;1.40;;;;;;;;;;5051181;28;20551;-76
2021/08/11 09:21:56;;;;;;;2.13;1.40;;;;;;;;;;5030267;28;20526;-76
2021/08/11 09:24:41;;;;;;;2.60;1.50;;;;;;;;;;5022951;28;20060;-77
2021/08/11 09:27:26;;;;;;;2.35;1.58;;;;;;;;;;5027255;28;20064;-77
2021/08/11 09:30:12;;;;;;;2.88;1.60;;;;;;;;;;5016065;28;20170;-75
2021/08/11 09:32:56;;;;;;;3.22;1.70;;;;;;;;;;5032685;28;20485;-74
2021/08/11 09:35:41;;;;;;;3.30;2.05;;;;;;;;;;5037293;28;20044;-74
2021/08/11 09:38:25;;;;;;;3.25;1.90;;;;;;;;;;5031612;28;20063;-75
2021/08/11 09:41:09;;;;;;;3.13;1.80;;;;;;;;;;5033324;28;20039;-75
2021/08/11 09:44:04;;;;;;;3.92;1.95;;;;;;;;;;5039669;28;20116;-75
2021/08/11 09:46:49;;;;;;;4.03;2.10;;;;;;;;;;5043410;28;20035;-74
2021/08/11 09:49:33;;;;;;;2.90;1.83;;;;;;;;;;5041957;28;20425;-75
2021/08/11 09:52:18;;;;;;;3.03;1.73;;;;;;;;;;5041810;28;20055;-75
2021/08/11 09:55:02;;;;;;;3.63;2.10;;;;;;;;;;5044022;28;20608;-75
2021/08/11 09:57:47;;;;;;;3.30;2.15;;;;;;;;;;5037053;28;20092;-75
2021/08/11 10:00:39;;;;;;;3.20;2.00;;;;;;;;;;5039607;28;20124;-75
2021/08/11 10:03:23;;;;;;;2.78;1.90;;;;;;;;;;5054104;28;20039;-75
2021/08/11 10:06:09;;;;;;;4.18;2.10;;;;;;;;;;5032826;28;20043;-75
2021/08/11 10:08:54;;;;;;;4.00;2.28;;;;;;;;;;5035810;28;20545;-76
2021/08/11 10:11:40;;;;;;;2.97;1.90;;;;;;;;;;5030224;28;20047;-76
2021/08/11 10:14:27;;;;;;;3.17;2.08;;;;;;;;;;5042473;28;20040;-76
2021/08/11 10:17:11;;;;;;;4.30;2.08;;;;;;;;;;5030845;28;20075;-76
2021/08/11 10:19:57;;;;;;;3.90;2.22;;;;;;;;;;5044343;28;20668;-76
2021/08/11 10:22:42;;;;;;;2.85;1.92;;;;;;;;;;5048104;28;20517;-76
2021/08/11 10:25:27;;;;;;;4.13;2.20;;;;;;;;;;5038553;28;20728;-77
2021/08/11 10:28:12;;;;;;;3.38;2.08;;;;;;;;;;5031368;28;20547;-75
2021/08/11 10:30:57;;;;;;;3.22;1.90;;;;;;;;;;5039080;28;20047;-74
2021/08/11 10:33:44;;;;;;;3.45;1.90;;;;;;;;;;5055929;28;20051;-75
2021/08/11 10:36:29;;;;;;;3.60;1.92;;;;;;;;;;5046968;28;20036;-75
2021/08/11 10:39:14;;;;;;;3.00;2.10;;;;;;;;;;5046180;28;20471;-76
2021/08/11 10:42:02;;;;;;;2.95;2.00;;;;;;;;;;5016308;28;20052;-75
2021/08/11 10:44:47;;;;;;;2.70;1.73;;;;;;;;;;5047343;28;20539;-75
2021/08/11 10:47:33;;;;;;;3.10;1.88;;;;;;;;;;5047323;28;20043;-74
2021/08/11 10:50:17;;;;;;;3.63;1.90;;;;;;;;;;5045201;28;20059;-74
2021/08/11 10:53:08;;;;;;;3.00;1.80;;;;;;;;;;5065157;28;20051;-74
2021/08/11 10:55:53;;;;;;;3.20;1.88;;;;;;;;;;5041647;28;20538;-76
2021/08/11 10:58:43;;;;;;;2.80;1.75;;;;;;;;;;5040979;28;20501;-73
2021/08/11 11:01:34;;;;;;;2.42;1.60;;;;;;;;;;5053244;28;20035;-73
2021/08/11 11:04:54;;;;;;;3.28;1.67;;;;;;;;;;5043990;28;20040;-73
2021/08/11 11:07:39;;;;;;;2.40;1.60;;;;;;;;;;4980742;28;20502;-73
2021/08/11 11:10:25;;;;;;;2.47;1.60;;;;;;;;;;5053467;28;20083;-74
2021/08/11 11:13:26;;;;;;;2.40;1.55;;;;;;;;;;5033322;28;20053;-74
2021/08/11 11:16:10;;;;;;;2.72;1.67;;;;;;;;;;5049293;28;20052;-74
2021/08/11 11:19:07;;;;;;;2.83;1.50;;;;;;;;;;5029551;28;20125;-73
2021/08/11 11:21:52;;;;;;;2.70;1.42;;;;;;;;;;5055197;28;20051;-74
2021/08/11 11:24:51;;;;;;;2.38;1.60;;;;;;;;;;5060133;28;20036;-73
2021/08/11 11:27:39;;;;;;;2.17;1.45;;;;;;;;;;5046345;28;20115;-76
2021/08/11 11:30:27;;;;;;;3.70;1.50;;;;;;;;;;5051456;28;20105;-73
2021/08/11 11:33:18;;;;;;;3.30;1.35;;;;;;;;;;5049526;28;20130;-73
2021/08/11 11:36:18;;;;;;;1.98;1.50;;;;;;;;;;5029598;28;20044;-74
2021/08/11 11:39:07;;;;;;;3.33;1.30;;;;;;;;;;5039725;28;20032;-73
2021/08/11 11:42:07;;;;;;;2.35;1.30;;;;;;;;;;5041458;28;20040;-74
2021/08/11 11:44:58;;;;;;;2.38;1.38;;;;;;;;;;5044529;28;20464;-73
2021/08/11 11:48:02;;;;;;;2.25;1.33;;;;;;;;;;5049357;28;20031;-73
2021/08/11 11:50:49;;;;;;;2.17;1.40;;;;;;;;;;5046638;28;20036;-73
2021/08/11 11:53:35;;;;;;;2.55;1.40;;;;;;;;;;5049733;28;20691;-72
2021/08/11 11:56:20;;;;;;;2.15;1.30;;;;;;;;;;5044839;28;20167;-75
2021/08/11 11:59:05;;;;;;;2.30;1.10;;;;;;;;;;5037920;28;20034;-75
2021/08/11 12:01:50;;;;;;;1.90;1.30;;;;;;;;;;5045623;28;20090;-76
2021/08/11 12:04:35;;;;;;;2.50;1.13;;;;;;;;;;5041503;28;20121;-75
2021/08/11 12:07:26;;;;;;;2.58;1.27;;;;;;;;;;5049520;28;20232;-75
2021/08/11 12:10:10;;;;;;;1.83;1.23;;;;;;;;;;5051107;28;20558;-76
2021/08/11 12:13:00;;;;;;;1.95;1.23;;;;;;;;;;5046188;28;20094;-75
2021/08/11 12:15:50;;;;;;;1.95;1.23;;;;;;;;;;5028514;28;20093;-75
2021/08/11 12:18:35;;;;;;;1.67;1.15;;;;;;;;;;5043826;28;20043;-76
2021/08/11 12:21:21;;;;;;;2.67;1.08;;;;;;;;;;5033352;28;21676;-76
2021/08/11 12:24:05;;;;;;;1.80;1.20;;;;;;;;;;5045875;28;20044;-76
2021/08/11 12:26:50;;;;;;;2.38;1.20;;;;;;;;;;5041513;28;20067;-77
2021/08/11 12:29:35;;;;;;;1.88;1.10;;;;;;;;;;5037311;28;20052;-76
2021/08/11 12:32:19;;;;;;;1.60;1.02;;;;;;;;;;5049085;28;20385;-78
2021/08/11 12:35:04;;;;;;;1.48;1.00;;;;;;;;;;5057690;28;20650;-77
2021/08/11 12:37:49;;;;;;;2.00;1.10;;;;;;;;;;5032051;28;20072;-76
2021/08/11 12:40:34;;;;;;;2.42;0.88;;;;;;;;;;5047446;28;20039;-79
2021/08/11 12:43:19;;;;;;;1.90;1.00;;;;;;;;;;5047777;28;20046;-79
2021/08/11 12:46:05;;;;;;;1.48;0.90;;;;;;;;;;5056548;28;20090;-82
2021/08/11 12:48:50;;;;;;;1.85;0.90;;;;;;;;;;5030962;28;20506;-83
2021/08/11 12:51:34;;;;;;;2.95;1.10;;;;;;;;;;5026004;28;20605;-81
2021/08/11 12:54:19;;;;;;;1.77;1.00;;;;;;;;;;5034638;28;20063;-81
2021/08/11 12:57:04;;;;;;;1.88;1.10;;;;;;;;;;5043837;28;20128;-79
2021/08/11 12:59:49;;;;;;;1.98;1.10;;;;;;;;;;5024004;28;20088;-81
2021/08/11 13:02:33;;;;;;;2.22;1.08;;;;;;;;;;5024639;28;20168;-82
2021/08/11 13:05:19;;;;;;;1.80;1.20;;;;;;;;;;5042158;28;20492;-80
2021/08/11 13:08:04;;;;;;;2.05;1.08;;;;;;;;;;5062738;28;20043;-81
2021/08/11 13:10:56;;;;;;;1.90;1.17;;;;;;;;;;5043804;28;20044;-84
2021/08/11 13:13:40;;;;;;;3.03;1.15;;;;;;;;;;5057484;28;20055;-82
2021/08/11 13:16:25;;;;;;;2.15;1.20;;;;;;;;;;5028500;28;20097;-82
2021/08/11 13:19:17;;;;;;;3.75;1.20;;;;;;;;;;5058019;28;20062;-82
2021/08/11 13:22:02;;;;;;;2.25;1.10;;;;;;;;;;5053927;28;20779;-83
2021/08/11 13:24:47;;;;;;;2.00;1.15;;;;;;;;;;5055126;28;20043;-81
2021/08/11 13:27:32;;;;;;;1.75;1.20;;;;;;;;;;5061838;28;20079;-81
2021/08/11 13:30:17;;;;;;;2.13;0.98;;;;;;;;;;5059587;28;20079;-80
2021/08/11 13:33:01;;;;;;;2.97;1.10;;;;;;;;;;5063791;28;20046;-81
2021/08/11 13:35:46;;;;;;;1.60;0.85;;;;;;;;;;5056136;28;20043;-81
2021/08/11 13:38:30;;;;;;;2.80;1.08;;;;;;;;;;5050337;28;20058;-81
2021/08/11 13:41:15;;;;;;;1.63;1.13;;;;;;;;;;5027936;28;20509;-80
2021/08/11 13:43:59;;;;;;;3.08;1.20;;;;;;;;;;5059314;28;20132;-80
2021/08/11 13:46:44;;;;;;;2.55;1.30;;;;;;;;;;5046923;28;20540;-82
2021/08/11 13:49:28;;;;;;;1.63;1.17;;;;;;;;;;5053365;28;20043;-81
2021/08/11 13:52:13;;;;;;;3.10;1.30;;;;;;;;;;5058199;28;20047;-82
2021/08/11 13:54:57;;;;;;;2.70;1.48;;;;;;;;;;5056145;28;20309;-80
2021/08/11 13:57:43;;;;;;;3.45;1.30;;;;;;;;;;5052011;28;20054;-80
2021/08/11 14:00:28;;;;;;;2.22;1.20;;;;;;;;;;5053683;28;20119;-81
2021/08/11 14:03:13;;;;;;;2.33;1.20;;;;;;;;;;5047613;28;20036;-81
2021/08/11 14:05:58;;;;;;;2.75;1.20;;;;;;;;;;5046131;28;20040;-81
2021/08/11 14:08:43;;;;;;;2.90;1.27;;;;;;;;;;5046263;28;20055;-79
2021/08/11 14:11:27;;;;;;;2.72;1.30;;;;;;;;;;5047058;28;20047;-81
2021/08/11 14:14:12;;;;;;;2.05;1.30;;;;;;;;;;5050290;28;20567;-82
2021/08/11 14:16:56;;;;;;;2.45;1.30;;;;;;;;;;5034477;28;20404;-81
2021/08/11 14:19:41;;;;;;;3.55;1.60;;;;;;;;;;5053330;28;20173;-80
2021/08/11 14:22:26;;;;;;;4.00;1.38;;;;;;;;;;5054821;28;20035;-79
2021/08/11 14:25:11;;;;;;;5.90;1.40;;;;;;;;;;5032205;28;20052;-80
2021/08/11 14:27:55;;;;;;;2.67;1.52;;;;;;;;;;5053986;28;20619;-79
2021/08/11 14:30:40;;;;;;;2.38;1.65;;;;;;;;;;5050887;28;20508;-80
2021/08/11 14:33:25;;;;;;;2.65;1.58;;;;;;;;;;5060991;28;20040;-81
2021/08/11 14:36:10;;;;;;;3.00;1.35;;;;;;;;;;5030684;28;21155;-77
2021/08/11 14:38:55;;;;;;;3.00;1.52;;;;;;;;;;5045207;28;20684;-77
2021/08/11 14:41:40;;;;;;;4.80;1.80;;;;;;;;;;5047466;28;20443;-75
2021/08/11 14:44:24;;;;;;;3.53;1.67;;;;;;;;;;5049063;28;20121;-74
2021/08/11 14:47:09;;;;;;;4.70;1.42;;;;;;;;;;5061464;28;20040;-74
2021/08/11 14:49:54;;;;;;;2.47;1.50;;;;;;;;;;5061871;28;20063;-77
2021/08/11 14:52:38;;;;;;;3.47;1.58;;;;;;;;;;5057618;28;20052;-74
2021/08/11 14:55:23;;;;;;;2.30;1.50;;;;;;;;;;5050663;28;20075;-76
2021/08/11 14:58:07;;;;;;;3.90;1.52;;;;;;;;;;5066768;28;20090;-76
2021/08/11 15:00:52;;;;;;;3.20;1.63;;;;;;;;;;5057940;28;20494;-76
2021/08/11 15:03:36;;;;;;;6.68;1.92;;;;;;;;;;5081017;28;20090;-76
2021/08/11 15:06:21;;;;;;;2.85;1.50;;;;;;;;;;5066291;28;20428;-76
2021/08/11 15:09:05;;;;;;;3.45;1.55;;;;;;;;;;5037706;28;20686;-76
2021/08/11 15:11:49;;;;;;;3.42;1.48;;;;;;;;;;5031355;28;20282;-74
2021/08/11 15:14:34;;;;;;;3.72;1.80;;;;;;;;;;5043126;28;20099;-74
2021/08/11 15:17:20;;;;;;;3.38;1.85;;;;;;;;;;5059330;28;20115;-73
2021/08/11 15:20:05;;;;;;;5.05;1.73;;;;;;;;;;5059513;28;20526;-74
2021/08/11 15:22:50;;;;;;;3.03;1.60;;;;;;;;;;5047072;28;20126;-74
2021/08/11 15:25:35;;;;;;;4.03;1.70;;;;;;;;;;5040718;28;20036;-74
2021/08/11 15:28:19;;;;;;;2.97;1.80;;;;;;;;;;5051076;28;20087;-73
2021/08/11 15:31:06;;;;;;;3.30;1.52;;;;;;;;;;5058198;28;20036;-74
2021/08/11 15:33:51;;;;;;;4.28;1.80;;;;;;;;;;5028768;28;20090;-72
2021/08/11 15:36:35;;;;;;;3.47;1.80;;;;;;;;;;5045953;28;20112;-72
2021/08/11 15:39:20;;;;;;;5.05;2.10;;;;;;;;;;5043141;28;20085;-74
2021/08/11 15:42:05;;;;;;;3.22;1.63;;;;;;;;;;5044664;28;20498;-73
2021/08/11 15:44:49;;;;;;;4.28;2.00;;;;;;;;;;5045248;28;20039;-73
2021/08/11 15:47:35;;;;;;;4.63;1.80;;;;;;;;;;5039609;28;20112;-73
2021/08/11 15:50:20;;;;;;;5.65;1.70;;;;;;;;;;5041646;28;20063;-73
2021/08/11 15:53:04;;;;;;;4.70;1.70;;;;;;;;;;5037358;28;20063;-72
2021/08/11 15:55:49;;;;;;;3.67;2.00;;;;;;;;;;5043443;28;20059;-72
2021/08/11 15:58:33;;;;;;;3.58;1.60;;;;;;;;;;5060040;28;20086;-73
2021/08/11 16:01:17;;;;;;;3.28;1.60;;;;;;;;;;5028275;28;20573;-73
2021/08/11 16:04:02;;;;;;;7.85;2.10;;;;;;;;;;5026634;28;20048;-76
2021/08/11 16:06:46;;;;;;;4.32;2.00;;;;;;;;;;5025492;28;20084;-76
2021/08/11 16:09:31;;;;;;;3.33;1.80;;;;;;;;;;5050042;28;20035;-75
2021/08/11 16:12:16;;;;;;;3.95;1.80;;;;;;;;;;5030886;28;20175;-77
2021/08/11 16:15:00;;;;;;;3.95;1.75;;;;;;;;;;5042496;28;20061;-76
2021/08/11 16:17:45;;;;;;;3.17;1.45;;;;;;;;;;5045961;28;20047;-76
2021/08/11 16:20:30;;;;;;;5.57;1.90;;;;;;;;;;5044866;28;20044;-75
2021/08/11 16:23:14;;;;;;;3.63;1.45;;;;;;;;;;5050178;28;20043;-75
2021/08/11 16:25:59;;;;;;;2.50;1.70;;;;;;;;;;5064773;28;20120;-75
2021/08/11 16:28:44;;;;;;;3.45;1.70;;;;;;;;;;5032040;28;20626;-76
2021/08/11 16:31:28;;;;;;;3.45;1.77;;;;;;;;;;5036038;28;20042;-76
2021/08/11 16:34:13;;;;;;;4.55;1.75;;;;;;;;;;5034493;28;20058;-76